createdAt,value
2023-02-24T00:04:00.890Z,15.90
2023-02-24T00:09:08.635Z,15.90
2023-02-24T00:14:16.107Z,15.90
2023-02-24T00:19:22.569Z,15.90
2023-02-24T00:24:26.065Z,16.00
2023-02-24T00:29:32.915Z,15.90
2023-02-24T00:34:37.815Z,15.90
2023-02-24T00:39:42.086Z,15.90
2023-02-24T00:44:48.127Z,15.90
2023-02-24T00:49:51.566Z,15.80
2023-02-24T00:54:55.153Z,15.80
2023-02-24T01:00:00.855Z,15.80
2023-02-24T01:05:06.366Z,15.80
2023-02-24T01:10:12.553Z,15.80
2023-02-24T01:15:19.026Z,15.80
2023-02-24T01:20:22.613Z,15.80
2023-02-24T01:25:26.303Z,15.90
2023-02-24T01:30:31.570Z,15.80
2023-02-24T01:35:35.606Z,15.80
2023-02-24T01:40:39.219Z,15.80
2023-02-24T01:45:44.203Z,15.80
2023-02-24T01:50:48.063Z,15.80
2023-02-24T01:55:52.384Z,15.80
2023-02-24T02:00:58.078Z,15.80
2023-02-24T02:06:04.038Z,15.80
2023-02-24T02:11:10.264Z,15.80
2023-02-24T02:16:25.883Z,15.70
2023-02-24T02:22:10.908Z,15.70
2023-02-24T02:27:29.542Z,15.80
2023-02-24T02:33:21.684Z,15.70
2023-02-24T02:38:31.528Z,15.80
2023-02-24T02:43:39.371Z,15.80
2023-02-24T02:48:48.806Z,15.70
2023-02-24T02:54:00.688Z,15.70
2023-02-24T02:59:05.434Z,15.70
2023-02-24T03:04:10.557Z,15.70
2023-02-24T03:09:18.622Z,15.70
2023-02-24T03:14:24.464Z,15.70
2023-02-24T03:19:32.266Z,15.70
2023-02-24T03:24:39.137Z,15.70
2023-02-24T03:29:48.659Z,15.80
2023-02-24T03:34:55.654Z,15.70
2023-02-24T03:40:07.896Z,15.70
2023-02-24T03:45:12.236Z,15.70
2023-02-24T03:50:18.474Z,15.70
2023-02-24T03:55:28.289Z,15.70
2023-02-24T04:00:38.535Z,15.60
2023-02-24T04:05:47.730Z,15.70
2023-02-24T04:10:54.979Z,15.60
2023-02-24T04:16:03.166Z,15.60
2023-02-24T04:21:07.109Z,15.50
2023-02-24T04:26:13.253Z,15.60
2023-02-24T04:31:18.810Z,15.70
2023-02-24T04:36:23.163Z,15.60
2023-02-24T04:41:27.924Z,15.60
2023-02-24T04:46:33.616Z,15.70
2023-02-24T04:51:38.001Z,15.60
2023-02-24T04:56:42.952Z,15.60
2023-02-24T05:01:46.695Z,15.60
2023-02-24T05:06:50.047Z,15.60
2023-02-24T05:11:54.825Z,15.60
2023-02-24T05:17:00.573Z,15.60
2023-02-24T05:22:04.887Z,15.60
2023-02-24T05:27:09.897Z,15.60
2023-02-24T05:32:13.416Z,15.60
2023-02-24T05:37:16.981Z,15.60
2023-02-24T05:42:21.896Z,15.60
2023-02-24T05:47:27.204Z,15.50
2023-02-24T05:52:31.353Z,15.50
2023-02-24T05:57:37.306Z,15.50
2023-02-24T06:02:43.343Z,15.50
2023-02-24T06:07:47.429Z,15.50
2023-02-24T06:12:54.515Z,15.50
2023-02-24T06:18:01.052Z,15.50
2023-02-24T06:23:05.561Z,15.30
2023-02-24T06:28:10.314Z,15.40
2023-02-24T06:33:14.042Z,15.50
2023-02-24T06:38:17.530Z,15.50
2023-02-24T06:43:22.380Z,15.40
2023-02-24T06:48:25.843Z,15.40
2023-02-24T06:53:29.265Z,15.40
2023-02-24T06:58:35.040Z,15.40
2023-02-24T07:03:40.572Z,15.40
2023-02-24T07:08:44.265Z,15.40
2023-02-24T07:13:49.768Z,15.50
2023-02-24T07:18:56.832Z,15.40
2023-02-24T07:24:00.337Z,15.40
2023-02-24T07:29:06.612Z,15.30
2023-02-24T07:34:10.147Z,15.30
2023-02-24T07:39:13.600Z,15.20
2023-02-24T07:44:20.392Z,15.30
2023-02-24T07:49:26.177Z,15.40
2023-02-24T07:54:31.349Z,15.20
2023-02-24T07:59:38.238Z,15.20
2023-02-24T08:04:45.519Z,15.30
2023-02-24T08:10:09.063Z,15.30
2023-02-24T08:15:24.284Z,15.30
2023-02-24T08:20:30.229Z,15.20
2023-02-24T08:25:36.638Z,15.20
2023-02-24T08:30:46.299Z,15.30
2023-02-24T08:35:56.825Z,15.10
2023-02-24T08:41:05.105Z,15.00
2023-02-24T08:46:19.457Z,15.10
2023-02-24T08:51:29.089Z,15.10
2023-02-24T08:56:35.063Z,15.10
2023-02-24T09:02:03.658Z,15.10
2023-02-24T09:07:15.563Z,15.10
2023-02-24T09:12:24.977Z,15.20
2023-02-24T09:17:50.374Z,15.10
2023-02-24T09:23:03.678Z,15.10
2023-02-24T09:28:09.464Z,15.20
2023-02-24T09:33:19.202Z,15.00
2023-02-24T09:38:43.692Z,15.00
2023-02-24T09:43:48.116Z,15.00
2023-02-24T09:48:56.591Z,15.00
2023-02-24T09:54:02.201Z,15.00
2023-02-24T09:59:14.358Z,15.10
2023-02-24T10:04:40.841Z,15.00
2023-02-24T10:09:48.378Z,15.00
2023-02-24T10:15:00.443Z,15.00
2023-02-24T10:20:14.180Z,15.10
2023-02-24T10:25:24.617Z,15.10
2023-02-24T10:30:42.061Z,15.10
2023-02-24T10:35:47.022Z,15.10
2023-02-24T10:40:57.025Z,15.10
2023-02-24T10:46:07.741Z,15.10
2023-02-24T10:51:20.568Z,15.10
2023-02-24T10:56:42.019Z,15.20
2023-02-24T11:01:55.135Z,15.10
2023-02-24T11:07:10.668Z,15.20
2023-02-24T11:12:34.982Z,15.10
2023-02-24T11:17:39.682Z,15.20
2023-02-24T11:22:49.310Z,15.20
2023-02-24T11:27:53.828Z,15.20
2023-02-24T11:33:12.341Z,15.20
2023-02-24T11:38:28.847Z,15.10
2023-02-24T11:43:35.510Z,15.20
2023-02-24T11:48:41.068Z,15.30
2023-02-24T11:53:49.417Z,15.20
2023-02-24T11:58:59.082Z,15.30
2023-02-24T12:04:08.040Z,15.20
2023-02-24T12:09:16.560Z,15.20
2023-02-24T12:14:24.771Z,15.20
2023-02-24T12:19:32.067Z,15.20
2023-02-24T12:24:39.296Z,15.20
2023-02-24T12:30:06.753Z,15.20
2023-02-24T12:35:19.939Z,15.30
2023-02-24T12:40:32.727Z,15.20
2023-02-24T12:45:46.419Z,15.30
2023-02-24T12:50:54.178Z,15.20
2023-02-24T12:56:06.352Z,15.30
2023-02-24T13:01:17.463Z,15.30
2023-02-24T13:06:30.646Z,15.20
2023-02-24T13:11:41.572Z,15.20
2023-02-24T13:16:45.015Z,15.20
2023-02-24T13:22:08.805Z,15.20
2023-02-24T13:27:24.745Z,15.30
2023-02-24T13:32:31.954Z,15.30
2023-02-24T13:37:37.173Z,15.40
2023-02-24T13:42:42.315Z,15.30
2023-02-24T13:48:28.070Z,15.30
2023-02-24T13:53:39.397Z,15.20
2023-02-24T13:58:56.940Z,15.20
2023-02-24T14:04:07.731Z,15.20
2023-02-24T14:09:16.697Z,15.20
2023-02-24T14:14:21.607Z,15.30
2023-02-24T14:19:26.668Z,15.20
2023-02-24T14:24:30.480Z,15.20
2023-02-24T14:29:43.894Z,15.30
2023-02-24T14:34:48.252Z,15.20
2023-02-24T14:39:53.368Z,15.20
2023-02-24T14:44:59.996Z,15.10
2023-02-24T14:50:04.900Z,15.20
2023-02-24T14:55:09.556Z,15.10
2023-02-24T15:00:22.296Z,15.20
2023-02-24T15:05:25.858Z,15.10
2023-02-24T15:10:31.329Z,15.20
2023-02-24T15:15:39.045Z,15.10
2023-02-24T15:20:42.701Z,15.10
2023-02-24T15:25:47.559Z,15.10
2023-02-24T15:31:00.637Z,15.10
2023-02-24T15:36:08.418Z,15.10
2023-02-24T15:41:12.888Z,15.10
2023-02-24T15:46:29.237Z,15.10
2023-02-24T15:51:37.020Z,15.10
2023-02-24T15:56:40.690Z,15.00
2023-02-24T16:01:45.619Z,15.10
2023-02-24T16:06:54.727Z,15.10
2023-02-24T16:11:58.217Z,15.10
2023-02-24T16:17:04.690Z,15.10
2023-02-24T16:22:08.096Z,15.00
2023-02-24T16:27:16.989Z,15.10
2023-02-24T16:32:24.004Z,15.20
2023-02-24T16:37:29.666Z,15.10
2023-02-24T16:42:33.776Z,15.10
2023-02-24T16:47:38.752Z,15.00
2023-02-24T16:52:42.277Z,15.10
2023-02-24T16:57:45.720Z,15.10
2023-02-24T17:02:51.307Z,15.10
2023-02-24T17:07:57.272Z,15.10
2023-02-24T17:13:00.816Z,15.10
2023-02-24T17:18:05.872Z,15.20
2023-02-24T17:23:09.478Z,15.10
2023-02-24T17:28:13.014Z,15.20
2023-02-24T17:33:17.955Z,15.20
2023-02-24T17:38:23.930Z,15.20
2023-02-24T17:43:27.702Z,15.20
2023-02-24T17:48:32.615Z,15.20
2023-02-24T17:53:36.147Z,15.10
2023-02-24T17:58:39.817Z,15.20
2023-02-24T18:03:44.793Z,15.20
2023-02-24T18:08:48.548Z,15.10
2023-02-24T18:13:55.304Z,15.20
2023-02-24T18:19:00.817Z,15.20
2023-02-24T18:24:04.305Z,15.20
2023-02-24T18:29:08.097Z,15.20
2023-02-24T18:34:13.000Z,15.20
2023-02-24T18:39:16.497Z,15.10
2023-02-24T18:44:20.020Z,15.10
2023-02-24T18:49:24.919Z,15.10
2023-02-24T18:54:28.369Z,15.10
2023-02-24T18:59:31.996Z,15.10
2023-02-24T19:04:36.883Z,15.00
2023-02-24T19:09:41.867Z,15.00
2023-02-24T19:14:45.692Z,15.10
2023-02-24T19:19:50.931Z,15.00
2023-02-24T19:24:54.341Z,15.10
2023-02-24T19:29:58.305Z,15.00
2023-02-24T19:35:03.247Z,15.00
2023-02-24T19:40:07.537Z,15.10
2023-02-24T19:45:11.614Z,15.00
2023-02-24T19:50:17.128Z,15.00
2023-02-24T19:55:20.760Z,15.00
2023-02-24T20:00:25.219Z,15.00
2023-02-24T20:05:30.098Z,15.00
2023-02-24T20:10:33.631Z,15.00
2023-02-24T20:15:37.106Z,15.00
2023-02-24T20:20:41.907Z,15.00
2023-02-24T20:25:51.900Z,14.90
2023-02-24T20:30:56.677Z,15.00
2023-02-24T20:36:01.539Z,15.00
2023-02-24T20:41:05.476Z,15.00
2023-02-24T20:46:13.033Z,15.00
2023-02-24T20:51:18.302Z,15.00
2023-02-24T20:56:22.390Z,15.00
2023-02-24T21:01:26.059Z,15.00
2023-02-24T21:06:31.183Z,15.00
2023-02-24T21:11:34.795Z,15.00
2023-02-24T21:16:38.265Z,15.10
2023-02-24T21:21:43.079Z,15.10
2023-02-24T21:26:47.570Z,15.00
2023-02-24T21:31:51.196Z,15.10
2023-02-24T21:36:56.505Z,15.00
2023-02-24T21:41:59.988Z,15.10
2023-02-24T21:47:03.420Z,15.00
2023-02-24T21:52:11.544Z,15.00
2023-02-24T21:57:14.960Z,15.10
2023-02-24T22:02:18.732Z,15.10
2023-02-24T22:07:23.593Z,15.10
2023-02-24T22:12:27.091Z,15.10
2023-02-24T22:17:31.110Z,15.10
2023-02-24T22:22:37.370Z,15.10
2023-02-24T22:27:40.919Z,15.10
2023-02-24T22:32:44.504Z,15.10
2023-02-24T22:37:49.365Z,15.00
2023-02-24T22:42:52.811Z,15.00
2023-02-24T22:47:56.311Z,15.00
2023-02-24T22:53:01.159Z,14.90
2023-02-24T22:58:04.680Z,15.00
2023-02-24T23:03:08.101Z,15.00
2023-02-24T23:08:12.945Z,15.10
2023-02-24T23:13:16.399Z,15.00
2023-02-24T23:18:19.840Z,15.00
2023-02-24T23:23:24.678Z,15.00
2023-02-24T23:28:28.862Z,15.10
2023-02-24T23:33:32.832Z,15.10
2023-02-24T23:38:37.761Z,15.00
2023-02-24T23:43:42.296Z,15.10
2023-02-24T23:48:45.878Z,15.00
2023-02-24T23:53:51.081Z,15.10
2023-02-24T23:58:55.348Z,15.00
